createdAt,value
2022-08-22T00:00:05.313Z,9.3
2022-08-22T00:02:02.436Z,17.1
2022-08-22T00:02:43.482Z,11.5
2022-08-22T00:02:49.791Z,7.8
2022-08-22T00:03:12.110Z,8.4
2022-08-22T00:04:12.551Z,7.5
2022-08-22T00:06:05.869Z,10.3
2022-08-22T00:08:06.378Z,8.3
2022-08-22T00:10:01.242Z,8.3
2022-08-22T00:12:07.523Z,7.3
2022-08-22T00:14:04.453Z,6.6
2022-08-22T00:16:05.874Z,9.5
2022-08-22T00:18:09.034Z,12.6
2022-08-22T00:20:06.697Z,8.7
2022-08-22T00:22:04.367Z,9.6
2022-08-22T00:24:12.770Z,7.1
2022-08-22T00:26:03.727Z,9.8
2022-08-22T00:28:05.350Z,8.1
2022-08-22T00:30:07.611Z,9
2022-08-22T00:32:10.297Z,11.4
2022-08-22T00:34:06.489Z,15.7
2022-08-22T00:36:12.285Z,7.1
2022-08-22T00:38:06.451Z,9.7
2022-08-22T00:40:19.994Z,6.4
2022-08-22T00:42:32.123Z,13
2022-08-22T00:44:22.200Z,11.7
2022-08-22T00:46:21.532Z,9.5
2022-08-22T00:48:21.118Z,8.1
2022-08-22T00:50:25.410Z,10.4
2022-08-22T00:52:23.438Z,9.2
2022-08-22T00:54:17.709Z,10.9
2022-08-22T00:56:27.223Z,12.4
2022-08-22T00:58:34.797Z,5.9
2022-08-22T01:00:12.106Z,11.5
2022-08-22T01:02:22.982Z,8.2
2022-08-22T01:04:29.928Z,10.2
2022-08-22T01:06:21.356Z,7.4
2022-08-22T01:08:22.945Z,11.3
2022-08-22T01:10:22.062Z,10.2
2022-08-22T01:12:19.271Z,8.6
2022-08-22T01:14:35.025Z,11.6
2022-08-22T01:16:33.811Z,10.2
2022-08-22T01:18:32.992Z,8.9
2022-08-22T01:20:33.621Z,10.1
2022-08-22T01:22:30.719Z,6.4
2022-08-22T01:24:39.142Z,7.9
2022-08-22T01:26:41.164Z,16.8
2022-08-22T01:28:33.156Z,12.7
2022-08-22T01:30:31.557Z,13
2022-08-22T01:32:38.890Z,13.2
2022-08-22T01:34:38.095Z,10.2
2022-08-22T01:36:40.018Z,9.4
2022-08-22T01:38:33.652Z,11.1
2022-08-22T01:40:37.376Z,7.5
2022-08-22T01:42:36.398Z,12.1
2022-08-22T01:44:28.903Z,8.3
2022-08-22T01:46:29.344Z,9.4
2022-08-22T01:48:19.750Z,9.9
2022-08-22T01:50:24.901Z,14.6
2022-08-22T01:52:20.038Z,7.6
2022-08-22T01:54:29.375Z,6.6
2022-08-22T01:56:20.204Z,8.7
2022-08-22T01:58:19.651Z,9.2
2022-08-22T02:00:18.715Z,11
2022-08-22T02:02:31.530Z,18.4
2022-08-22T02:04:27.376Z,15.1
2022-08-22T02:06:28.552Z,10.4
2022-08-22T02:08:27.364Z,12.1
2022-08-22T02:10:24.628Z,9.1
2022-08-22T02:12:29.398Z,9.9
2022-08-22T02:14:32.795Z,11.9
2022-08-22T02:16:31.260Z,15.5
2022-08-22T02:18:25.879Z,10.6
2022-08-22T02:20:24.778Z,7.3
2022-08-22T02:22:32.142Z,10.5
2022-08-22T02:24:28.138Z,7.6
2022-08-22T02:26:25.180Z,10.4
2022-08-22T02:28:42.407Z,13.2
2022-08-22T02:30:27.633Z,14
2022-08-22T02:32:27.514Z,14.3
2022-08-22T02:34:34.530Z,10.2
2022-08-22T02:36:28.655Z,13.6
2022-08-22T02:38:29.005Z,11.1
2022-08-22T02:40:29.880Z,9.8
2022-08-22T02:42:28.485Z,11.6
2022-08-22T02:44:29.472Z,10.3
2022-08-22T02:46:29.595Z,9.9
2022-08-22T02:48:36.083Z,10.1
2022-08-22T02:50:33.955Z,12.7
2022-08-22T02:52:28.967Z,12
2022-08-22T02:54:34.865Z,13.3
2022-08-22T02:56:31.651Z,10
2022-08-22T02:58:33.901Z,9.5
2022-08-22T03:00:32.682Z,10.5
2022-08-22T03:02:32.882Z,16.9
2022-08-22T03:04:45.126Z,10.1
2022-08-22T03:06:35.918Z,15
2022-08-22T03:08:30.125Z,8.1
2022-08-22T03:10:31.658Z,13.4
2022-08-22T03:12:37.542Z,9
2022-08-22T03:14:34.852Z,11
2022-08-22T03:16:35.269Z,7.4
2022-08-22T03:18:42.597Z,11.7
2022-08-22T03:20:42.309Z,7.7
2022-08-22T03:22:40.779Z,11.7
2022-08-22T03:24:36.711Z,7.8
2022-08-22T03:26:40.377Z,12.1
2022-08-22T03:28:33.205Z,12.9
2022-08-22T03:30:36.979Z,12
2022-08-22T03:32:48.701Z,14.6
2022-08-22T03:34:31.318Z,14.1
2022-08-22T03:36:34.094Z,14.1
2022-08-22T03:38:47.105Z,16.8
2022-08-22T03:40:48.715Z,13.6
2022-08-22T03:42:58.194Z,19.6
2022-08-22T03:44:58.425Z,15.6
2022-08-22T03:46:50.975Z,40.4
2022-08-22T03:49:00.953Z,72.3
2022-08-22T03:51:03.318Z,40.4
2022-08-22T03:52:59.816Z,31.5
2022-08-22T03:54:57.648Z,17.3
2022-08-22T03:57:07.587Z,12
2022-08-22T03:59:01.053Z,21.6
2022-08-22T04:00:59.248Z,23.1
2022-08-22T04:03:03.001Z,17.5
2022-08-22T04:04:57.298Z,15.4
2022-08-22T04:07:04.068Z,17.4
2022-08-22T04:08:54.771Z,20.8
2022-08-22T04:10:55.803Z,29.5
2022-08-22T04:12:58.472Z,36.7
2022-08-22T04:14:55.352Z,18.2
2022-08-22T04:17:04.727Z,17.5
2022-08-22T04:19:08.027Z,18.8
2022-08-22T04:21:05.461Z,18.9
2022-08-22T04:22:59.655Z,21.8
2022-08-22T04:24:52.070Z,11.4
2022-08-22T04:26:46.174Z,10.8
2022-08-22T04:28:45.974Z,11
2022-08-22T04:30:48.063Z,14.3
2022-08-22T04:32:45.110Z,10.3
2022-08-22T04:34:46.615Z,24.2
2022-08-22T04:36:46.345Z,15.5
2022-08-22T04:38:49.695Z,15
2022-08-22T04:40:49.173Z,15.3
2022-08-22T04:42:50.981Z,22.4
2022-08-22T04:44:51.441Z,20.3
2022-08-22T04:46:51.857Z,29.2
2022-08-22T04:49:01.930Z,51.7
2022-08-22T04:50:52.834Z,23
2022-08-22T04:53:02.345Z,37.5
2022-08-22T04:54:57.091Z,46.1
2022-08-22T04:57:00.815Z,27.2
2022-08-22T04:58:55.928Z,38.9
2022-08-22T05:00:59.971Z,31.4
2022-08-22T05:02:51.782Z,24.7
2022-08-22T05:04:56.386Z,36.1
2022-08-22T05:07:02.261Z,24
2022-08-22T05:08:53.788Z,31.3
2022-08-22T05:10:51.256Z,25
2022-08-22T05:13:05.430Z,25.8
2022-08-22T05:14:54.608Z,38.6
2022-08-22T05:16:54.955Z,37.2
2022-08-22T05:18:56.017Z,30.4
2022-08-22T05:20:53.934Z,24.8
2022-08-22T05:22:58.351Z,22.8
2022-08-22T05:24:59.138Z,20.7
2022-08-22T05:26:56.675Z,23.7
2022-08-22T05:28:59.360Z,22.2
2022-08-22T05:30:55.999Z,13.4
2022-08-22T05:33:05.154Z,14.8
2022-08-22T05:34:59.271Z,17.6
2022-08-22T05:36:57.842Z,22
2022-08-22T05:38:58.502Z,18.2
2022-08-22T05:41:01.305Z,17.4
2022-08-22T05:42:58.132Z,18.5
2022-08-22T05:44:59.969Z,21.9
2022-08-22T05:47:02.716Z,15.4
2022-08-22T05:49:00.973Z,17.3
2022-08-22T05:51:11.164Z,22.6
2022-08-22T05:53:05.009Z,22.9
2022-08-22T05:55:04.986Z,24.4
2022-08-22T05:57:08.693Z,21.3
2022-08-22T05:59:08.164Z,21
2022-08-22T06:01:22.118Z,19.7
2022-08-22T06:03:12.328Z,19.4
2022-08-22T06:05:09.866Z,15.8
2022-08-22T06:07:07.500Z,26.1
2022-08-22T06:09:07.927Z,19.7
2022-08-22T06:11:08.231Z,31
2022-08-22T06:13:11.408Z,31.6
2022-08-22T06:15:13.630Z,27.1
2022-08-22T06:17:08.651Z,26.7
2022-08-22T06:19:05.340Z,37.4
2022-08-22T06:21:10.576Z,23.4
2022-08-22T06:23:07.526Z,23.3
2022-08-22T06:25:12.955Z,18
2022-08-22T06:27:12.277Z,28.2
2022-08-22T06:29:09.147Z,26.6
2022-08-22T06:31:15.098Z,27.1
2022-08-22T06:33:12.408Z,27.3
2022-08-22T06:35:16.497Z,23.5
2022-08-22T06:37:14.658Z,23.7
2022-08-22T06:39:18.053Z,15
2022-08-22T06:41:10.333Z,13.7
2022-08-22T06:43:11.498Z,19.6
2022-08-22T06:45:16.677Z,20.7
2022-08-22T06:47:18.382Z,16.3
2022-08-22T06:49:14.120Z,32.1
2022-08-22T06:51:16.130Z,29.4
2022-08-22T06:53:18.068Z,24.6
2022-08-22T06:55:14.847Z,16.7
2022-08-22T06:57:29.549Z,13.6
2022-08-22T06:59:18.929Z,18
2022-08-22T07:01:19.947Z,13.1
2022-08-22T07:03:24.747Z,15.4
2022-08-22T07:05:21.490Z,20.5
2022-08-22T07:07:19.604Z,26.3
2022-08-22T07:09:23.989Z,11.1
2022-08-22T07:11:24.705Z,18.7
2022-08-22T07:13:19.957Z,17.4
2022-08-22T07:15:31.329Z,20.4
2022-08-22T07:17:23.989Z,16
2022-08-22T07:19:24.863Z,17.9
2022-08-22T07:21:25.471Z,20.4
2022-08-22T07:23:30.222Z,19.2
2022-08-22T07:25:24.722Z,16.7
2022-08-22T07:27:39.690Z,24.6
2022-08-22T07:29:30.724Z,18.6
2022-08-22T07:31:32.818Z,16.4
2022-08-22T07:33:38.330Z,19.1
2022-08-22T07:35:29.858Z,17.7
2022-08-22T07:37:36.661Z,25.6
2022-08-22T07:39:33.988Z,14.5
2022-08-22T07:41:37.393Z,18.6
2022-08-22T07:43:32.592Z,126.1
2022-08-22T07:45:36.735Z,21
2022-08-22T07:47:49.565Z,15.9
2022-08-22T07:49:36.040Z,21.5
2022-08-22T07:51:34.483Z,16.4
2022-08-22T07:53:40.832Z,9.7
2022-08-22T07:55:32.623Z,12.3
2022-08-22T07:57:36.783Z,14.1
2022-08-22T07:59:36.320Z,10.8
2022-08-22T08:01:34.369Z,19.1
2022-08-22T08:03:34.839Z,23.4
2022-08-22T08:05:37.743Z,31.9
2022-08-22T08:07:39.911Z,19.6
2022-08-22T08:09:40.574Z,12.4
2022-08-22T08:11:41.117Z,18.1
2022-08-22T08:13:45.168Z,14.2
2022-08-22T08:15:38.974Z,12
2022-08-22T08:17:39.838Z,12.4
2022-08-22T08:19:41.810Z,13.5
2022-08-22T08:21:46.096Z,15.8
2022-08-22T08:23:45.234Z,15.5
2022-08-22T08:25:53.452Z,26.7
2022-08-22T08:27:41.679Z,19.3
2022-08-22T08:29:53.040Z,21
2022-08-22T08:31:44.849Z,19.3
2022-08-22T08:33:47.009Z,15.1
2022-08-22T08:36:03.015Z,19.1
2022-08-22T08:37:47.790Z,21.9
2022-08-22T08:39:49.303Z,32.9
2022-08-22T08:42:15.377Z,13.9
2022-08-22T08:43:59.562Z,15.9
2022-08-22T08:46:15.509Z,19.3
2022-08-22T08:48:08.483Z,11.4
2022-08-22T08:50:03.332Z,11
2022-08-22T08:52:08.681Z,9.7
2022-08-22T08:54:06.776Z,14.3
2022-08-22T08:55:57.292Z,9.8
2022-08-22T08:56:21.804Z,9.8
2022-08-22T08:56:35.212Z,9.8
2022-08-22T08:58:06.828Z,25.2
2022-08-22T09:00:02.530Z,20.3
2022-08-22T09:02:07.266Z,19.6
2022-08-22T09:04:20.365Z,19.8
2022-08-22T09:06:10.816Z,20.1
2022-08-22T09:08:22.850Z,26.2
2022-08-22T09:10:19.193Z,21
2022-08-22T09:12:22.747Z,28.1
2022-08-22T09:14:09.928Z,10.7
2022-08-22T09:16:11.560Z,11.7
2022-08-22T09:18:13.303Z,14.8
2022-08-22T09:20:17.730Z,8.3
2022-08-22T09:22:14.197Z,24.4
2022-08-22T09:24:26.315Z,12.9
2022-08-22T09:26:01.348Z,20.6
2022-08-22T09:28:03.975Z,19.6
2022-08-22T09:30:07.722Z,16.9
2022-08-22T09:32:07.387Z,19.4
2022-08-22T09:34:09.506Z,14.7
2022-08-22T09:36:05.106Z,15.5
2022-08-22T09:38:25.150Z,15.9
2022-08-22T09:40:15.149Z,16.7
2022-08-22T09:42:10.812Z,24.1
2022-08-22T09:44:15.511Z,26.1
2022-08-22T09:46:12.093Z,16.6
2022-08-22T09:48:14.902Z,12.4
2022-08-22T09:50:12.804Z,14.2
2022-08-22T09:52:15.582Z,14.2
2022-08-22T09:54:20.721Z,11.3
2022-08-22T09:56:11.587Z,21.4
2022-08-22T09:58:18.680Z,11.9
2022-08-22T10:00:18.093Z,11.6
2022-08-22T10:02:23.029Z,16.8
2022-08-22T10:04:35.570Z,15.8
2022-08-22T10:06:17.136Z,29.5
2022-08-22T10:08:20.266Z,16.4
2022-08-22T10:10:26.558Z,15
2022-08-22T10:12:18.643Z,18.9
2022-08-22T10:14:22.327Z,16.7
2022-08-22T10:16:20.479Z,23.2
2022-08-22T10:18:28.272Z,13.4
2022-08-22T10:20:22.798Z,11.9
2022-08-22T10:22:22.561Z,13.4
2022-08-22T10:24:27.212Z,20.5
2022-08-22T10:26:39.125Z,18.7
2022-08-22T10:28:24.378Z,17.2
2022-08-22T10:30:19.526Z,20.5
2022-08-22T10:32:28.116Z,20.6
2022-08-22T10:34:23.038Z,13.7
2022-08-22T10:36:26.409Z,22.4
2022-08-22T10:38:25.219Z,25.5
2022-08-22T10:40:27.060Z,12.2
2022-08-22T10:42:28.443Z,19.5
2022-08-22T10:44:29.655Z,15.7
2022-08-22T10:46:28.160Z,15.7
2022-08-22T10:48:31.163Z,10.8
2022-08-22T10:50:31.162Z,21.3
2022-08-22T10:52:26.919Z,20
2022-08-22T10:54:34.756Z,18.3
2022-08-22T10:56:33.340Z,21.9
2022-08-22T10:58:27.354Z,12.5
2022-08-22T11:00:46.430Z,12.3
2022-08-22T11:02:42.164Z,23.9
2022-08-22T11:04:47.638Z,18
2022-08-22T11:06:34.424Z,16
2022-08-22T11:08:47.320Z,21.2
2022-08-22T11:10:40.333Z,16.5
2022-08-22T11:12:35.070Z,12.9
2022-08-22T11:15:00.443Z,12.7
2022-08-22T11:16:47.695Z,18.2
2022-08-22T11:18:57.773Z,23.3
2022-08-22T11:20:43.212Z,18.6
2022-08-22T11:22:41.875Z,10.7
2022-08-22T11:25:04.395Z,18.1
2022-08-22T11:26:47.328Z,10.7
2022-08-22T11:28:56.027Z,23.4
2022-08-22T11:30:45.898Z,13.9
2022-08-22T11:32:40.231Z,21
2022-08-22T11:34:47.784Z,16.5
2022-08-22T11:36:41.502Z,27.3
2022-08-22T11:38:44.249Z,32.1
2022-08-22T11:40:44.735Z,14.6
2022-08-22T11:42:47.800Z,14.9
2022-08-22T11:44:50.897Z,24.6
2022-08-22T11:46:42.349Z,17.8
2022-08-22T11:48:48.874Z,11.1
2022-08-22T11:50:45.209Z,18.4
2022-08-22T11:52:59.752Z,22.9
2022-08-22T11:55:02.192Z,17.4
2022-08-22T11:56:47.469Z,14
2022-08-22T11:58:52.697Z,19.6
2022-08-22T12:00:53.321Z,16.2
2022-08-22T12:02:59.661Z,21.9
2022-08-22T12:04:50.564Z,14.3
2022-08-22T12:06:54.555Z,22.5
2022-08-22T12:09:12.031Z,23.7
2022-08-22T12:10:54.178Z,14.1
2022-08-22T12:12:58.384Z,16.7
2022-08-22T12:14:56.292Z,24
2022-08-22T12:17:02.421Z,22.3
2022-08-22T12:18:55.558Z,15.1
2022-08-22T12:21:15.918Z,28.8
2022-08-22T12:23:06.895Z,14.3
2022-08-22T12:25:05.244Z,17.7
2022-08-22T12:27:00.792Z,18.3
2022-08-22T12:29:15.810Z,22.9
2022-08-22T12:31:04.347Z,26.7
2022-08-22T12:33:13.512Z,17.8
2022-08-22T12:35:13.862Z,13.7
2022-08-22T12:37:05.270Z,31.6
2022-08-22T12:39:14.196Z,14.3
2022-08-22T12:41:13.154Z,21.4
2022-08-22T12:43:12.059Z,21.3
2022-08-22T12:45:14.549Z,18.8
2022-08-22T12:47:10.791Z,19.7
2022-08-22T12:49:08.666Z,11.3
2022-08-22T12:51:17.565Z,16.2
2022-08-22T12:53:20.040Z,21
2022-08-22T12:55:18.577Z,18.2
2022-08-22T12:57:23.784Z,15.6
2022-08-22T12:59:19.613Z,22.5
2022-08-22T13:01:05.331Z,17.4
2022-08-22T13:03:06.377Z,16.6
2022-08-22T13:05:10.000Z,15.2
2022-08-22T13:07:09.103Z,19
2022-08-22T13:09:11.195Z,18.2
2022-08-22T13:11:10.021Z,21.2
2022-08-22T13:13:12.115Z,18.4
2022-08-22T13:15:25.302Z,20.6
2022-08-22T13:17:24.399Z,13.3
2022-08-22T13:19:13.498Z,16.2
2022-08-22T13:21:14.494Z,14.4
2022-08-22T13:23:13.556Z,27.9
2022-08-22T13:25:25.397Z,27.5
2022-08-22T13:27:14.339Z,17
2022-08-22T13:29:39.066Z,27.2
2022-08-22T13:31:20.360Z,14
2022-08-22T13:33:13.825Z,30.5
2022-08-22T13:35:20.270Z,24.5
2022-08-22T13:37:15.949Z,20.2
2022-08-22T13:39:25.221Z,17.3
2022-08-22T13:41:18.758Z,17.4
2022-08-22T13:43:19.850Z,20.7
2022-08-22T13:45:20.755Z,18.8
2022-08-22T13:47:17.048Z,19.7
2022-08-22T13:49:19.801Z,19.3
2022-08-22T13:51:22.244Z,24.8
2022-08-22T13:53:26.454Z,28.7
2022-08-22T13:55:23.328Z,27.4
2022-08-22T13:57:23.906Z,17.3
2022-08-22T13:59:49.702Z,41.2
2022-08-22T14:01:28.751Z,33.1
2022-08-22T14:03:24.571Z,25
2022-08-22T14:05:24.547Z,21.9
2022-08-22T14:07:29.630Z,24
2022-08-22T14:09:32.729Z,29.2
2022-08-22T14:11:29.717Z,24.4
2022-08-22T14:13:34.596Z,34
2022-08-22T14:15:25.905Z,22
2022-08-22T14:17:27.853Z,30.5
2022-08-22T14:19:30.672Z,21.4
2022-08-22T14:21:40.066Z,22.3
2022-08-22T14:23:27.711Z,33.7
2022-08-22T14:25:27.582Z,25.4
2022-08-22T14:27:29.890Z,37.4
2022-08-22T14:29:31.886Z,30.7
2022-08-22T14:31:28.246Z,28.7
2022-08-22T14:33:34.088Z,24.2
2022-08-22T14:35:35.245Z,31.5
2022-08-22T14:37:34.318Z,23.5
2022-08-22T14:39:34.889Z,33.4
2022-08-22T14:41:55.603Z,35.9
2022-08-22T14:43:49.595Z,23.2
2022-08-22T14:45:35.757Z,27.3
2022-08-22T14:47:55.344Z,28.2
2022-08-22T14:49:47.144Z,33.3
2022-08-22T14:51:32.739Z,25.2
2022-08-22T14:53:35.255Z,25.6
2022-08-22T14:55:34.302Z,19.3
2022-08-22T14:57:40.076Z,44.3
2022-08-22T14:59:43.256Z,25.5
2022-08-22T15:01:53.744Z,25.1
2022-08-22T15:03:36.512Z,23.5
2022-08-22T15:05:48.594Z,28.6
2022-08-22T15:07:37.592Z,38.8
2022-08-22T15:09:41.853Z,26.3
2022-08-22T15:11:42.235Z,21.1
2022-08-22T15:13:48.612Z,20.3
2022-08-22T15:15:53.386Z,30.4
2022-08-22T15:17:44.009Z,28.8
2022-08-22T15:19:45.915Z,28.7
2022-08-22T15:21:41.575Z,16.9
2022-08-22T15:23:45.076Z,21.4
2022-08-22T15:25:47.074Z,20.2
2022-08-22T15:27:48.811Z,26.6
2022-08-22T15:29:49.953Z,35.5
2022-08-22T15:31:46.585Z,32.3
2022-08-22T15:33:45.872Z,33.7
2022-08-22T15:35:45.759Z,29.4
2022-08-22T15:37:56.107Z,32.6
2022-08-22T15:40:07.464Z,23.3
2022-08-22T15:41:47.856Z,29.8
2022-08-22T15:43:48.917Z,38.3
2022-08-22T15:45:49.849Z,38.4
2022-08-22T15:47:50.376Z,37.4
2022-08-22T15:49:52.261Z,33.3
2022-08-22T15:52:04.876Z,27.8
2022-08-22T15:54:00.292Z,29.7
2022-08-22T15:56:21.021Z,33.3
2022-08-22T15:58:00.649Z,33.7
2022-08-22T15:59:55.670Z,26.8
2022-08-22T16:01:56.064Z,35.6
2022-08-22T16:03:56.707Z,30.6
2022-08-22T16:05:55.944Z,27.9
2022-08-22T16:08:03.114Z,34.3
2022-08-22T16:09:58.166Z,30.9
2022-08-22T16:11:56.690Z,35.4
2022-08-22T16:14:15.481Z,39.5
2022-08-22T16:16:00.360Z,25.9
2022-08-22T16:17:55.914Z,30.3
2022-08-22T16:20:25.732Z,31.7
2022-08-22T16:22:08.429Z,33.5
2022-08-22T16:24:26.689Z,36.9
2022-08-22T16:26:09.288Z,31
2022-08-22T16:27:58.589Z,22.3
2022-08-22T16:30:05.241Z,29.8
2022-08-22T16:32:06.071Z,31.3
2022-08-22T16:34:23.410Z,27.1
2022-08-22T16:36:37.982Z,26.8
2022-08-22T16:38:01.433Z,31.8
2022-08-22T16:40:14.473Z,25.3
2022-08-22T16:42:22.367Z,27.3
2022-08-22T16:44:20.827Z,30
2022-08-22T16:46:26.081Z,26.4
2022-08-22T16:48:22.747Z,37.2
2022-08-22T16:50:21.877Z,28.3
2022-08-22T16:52:34.185Z,34.3
2022-08-22T16:54:09.818Z,34.1
2022-08-22T16:56:21.832Z,37
2022-08-22T16:58:16.149Z,31.7
2022-08-22T17:00:24.444Z,25.5
2022-08-22T17:02:36.444Z,28.2
2022-08-22T17:04:19.527Z,34.3
2022-08-22T17:06:27.104Z,39.6
2022-08-22T17:08:24.882Z,34.2
2022-08-22T17:10:28.103Z,34.4
2022-08-22T17:12:23.338Z,27.3
2022-08-22T17:14:21.933Z,38.3
2022-08-22T17:16:23.025Z,43.9
2022-08-22T17:18:34.600Z,32.1
2022-08-22T17:20:22.770Z,36.6
2022-08-22T17:22:29.132Z,37.7
2022-08-22T17:24:32.298Z,41.2
2022-08-22T17:26:21.563Z,42.4
2022-08-22T17:28:19.658Z,41
2022-08-22T17:30:21.710Z,44.2
2022-08-22T17:32:21.242Z,49.8
2022-08-22T17:34:29.081Z,52
2022-08-22T17:36:26.497Z,47.6
2022-08-22T17:38:26.457Z,35.5
2022-08-22T17:40:29.976Z,32.5
2022-08-22T17:42:36.752Z,40.2
2022-08-22T17:44:26.367Z,43.9
2022-08-22T17:46:35.536Z,35.3
2022-08-22T17:48:23.459Z,33.1
2022-08-22T17:50:25.785Z,41.8
2022-08-22T17:52:27.217Z,55.7
2022-08-22T17:54:29.551Z,43.4
2022-08-22T17:56:25.526Z,38.5
2022-08-22T17:58:37.379Z,40.8
2022-08-22T18:00:27.734Z,40.5
2022-08-22T18:02:26.860Z,38.3
2022-08-22T18:04:30.889Z,40
2022-08-22T18:06:27.013Z,39.1
2022-08-22T18:09:13.443Z,45.8
2022-08-22T18:10:37.505Z,38.8
2022-08-22T18:12:34.196Z,37.5
2022-08-22T18:14:35.321Z,39.4
2022-08-22T18:16:30.247Z,38
2022-08-22T18:18:32.453Z,33.3
2022-08-22T18:20:33.742Z,33.5
2022-08-22T18:22:32.237Z,34.4
2022-08-22T18:24:34.397Z,35
2022-08-22T18:26:32.999Z,32.6
2022-08-22T18:28:34.733Z,34.1
2022-08-22T18:30:33.078Z,30.6
2022-08-22T18:32:35.411Z,31.5
2022-08-22T18:33:51.204Z,31.5
2022-08-22T18:34:02.535Z,31.5
2022-08-22T18:34:36.676Z,36.8
2022-08-22T18:36:34.076Z,33.3
2022-08-22T18:38:34.937Z,31.2
2022-08-22T18:40:47.923Z,31.9
2022-08-22T18:42:38.469Z,30.3
2022-08-22T18:44:35.579Z,36.6
2022-08-22T18:46:42.812Z,35.2
2022-08-22T18:48:54.302Z,30.6
2022-08-22T18:50:35.795Z,26.5
2022-08-22T18:52:37.404Z,30.7
2022-08-22T18:54:42.822Z,30.2
2022-08-22T18:56:46.739Z,21.7
2022-08-22T18:59:01.947Z,27.1
2022-08-22T19:00:53.536Z,22.7
2022-08-22T19:03:00.486Z,30.7
2022-08-22T19:04:59.050Z,22.3
2022-08-22T19:06:55.355Z,28.5
2022-08-22T19:09:02.737Z,25
2022-08-22T19:10:48.497Z,23.1
2022-08-22T19:12:59.002Z,23.1
2022-08-22T19:15:03.329Z,23.5
2022-08-22T19:17:04.866Z,25.3
2022-08-22T19:18:50.231Z,24.9
2022-08-22T19:20:40.662Z,22.6
2022-08-22T19:22:40.600Z,21
2022-08-22T19:25:08.920Z,23.6
2022-08-22T19:26:43.342Z,20.3
2022-08-22T19:28:41.770Z,22.8
2022-08-22T19:30:44.306Z,25.5
2022-08-22T19:33:02.068Z,21.6
2022-08-22T19:34:46.998Z,27.4
2022-08-22T19:36:45.009Z,23.3
2022-08-22T19:38:54.882Z,23.9
2022-08-22T19:40:55.001Z,20.7
2022-08-22T19:42:45.249Z,22.1
2022-08-22T19:44:47.139Z,21.4
2022-08-22T19:46:59.065Z,20.4
2022-08-22T19:48:48.596Z,23.1
2022-08-22T19:51:01.640Z,29.9
2022-08-22T19:53:03.641Z,20.6
2022-08-22T19:55:00.803Z,28.2
2022-08-22T19:57:04.413Z,25.3
2022-08-22T19:59:03.564Z,23.6
2022-08-22T20:00:55.358Z,22.5
2022-08-22T20:02:58.839Z,21.7
2022-08-22T20:05:11.794Z,23.6
2022-08-22T20:07:00.162Z,20
2022-08-22T20:09:02.831Z,21.8
2022-08-22T20:11:03.367Z,22.3
2022-08-22T20:13:02.149Z,18.3
2022-08-22T20:14:52.662Z,17.8
2022-08-22T20:17:10.215Z,21.2
2022-08-22T20:19:12.037Z,15.8
2022-08-22T20:20:58.249Z,21.6
2022-08-22T20:23:02.655Z,17.3
2022-08-22T20:24:57.364Z,20.9
2022-08-22T20:27:13.303Z,20.5
2022-08-22T20:28:55.539Z,23.5
2022-08-22T20:30:57.964Z,20
2022-08-22T20:33:04.648Z,18.8
2022-08-22T20:34:59.992Z,15
2022-08-22T20:37:22.668Z,19.2
2022-08-22T20:39:00.801Z,18.4
2022-08-22T20:41:11.815Z,15.6
2022-08-22T20:43:04.461Z,15.7
2022-08-22T20:44:59.873Z,14.7
2022-08-22T20:47:04.580Z,18
2022-08-22T20:49:00.693Z,13.5
2022-08-22T20:51:03.356Z,13.4
2022-08-22T20:53:19.943Z,15
2022-08-22T20:55:06.065Z,12.5
2022-08-22T20:57:10.551Z,18.3
2022-08-22T20:59:15.103Z,16.2
2022-08-22T21:01:02.519Z,20.2
2022-08-22T21:03:08.308Z,14.5
2022-08-22T21:05:06.601Z,19.4
2022-08-22T21:07:03.213Z,17
2022-08-22T21:09:13.994Z,14.7
2022-08-22T21:11:05.978Z,17
2022-08-22T21:13:08.687Z,17.2
2022-08-22T21:15:05.747Z,14.3
2022-08-22T21:17:23.287Z,14.4
2022-08-22T21:19:16.841Z,15.6
2022-08-22T21:21:10.501Z,13.9
2022-08-22T21:23:11.062Z,11
2022-08-22T21:25:08.360Z,19.1
2022-08-22T21:27:08.048Z,12.3
2022-08-22T21:29:20.752Z,15.2
2022-08-22T21:31:12.419Z,13.7
2022-08-22T21:33:14.175Z,13.7
2022-08-22T21:35:23.430Z,16.8
2022-08-22T21:37:15.937Z,15.5
2022-08-22T21:39:16.584Z,14.7
2022-08-22T21:41:13.434Z,15.8
2022-08-22T21:43:13.005Z,13.3
2022-08-22T21:45:26.822Z,13.7
2022-08-22T21:47:19.191Z,15.7
2022-08-22T21:49:20.582Z,12.1
2022-08-22T21:51:27.930Z,14.8
2022-08-22T21:53:26.461Z,16.9
2022-08-22T21:55:16.381Z,14.9
2022-08-22T21:57:17.683Z,18.5
2022-08-22T21:59:25.560Z,15.5
2022-08-22T22:01:31.582Z,14.8
2022-08-22T22:03:16.392Z,16
2022-08-22T22:05:17.418Z,17.5
2022-08-22T22:07:15.609Z,13.4
2022-08-22T22:09:16.151Z,18.3
2022-08-22T22:11:16.968Z,12.7
2022-08-22T22:13:19.446Z,11
2022-08-22T22:15:21.065Z,15.3
2022-08-22T22:17:19.009Z,11.6
2022-08-22T22:19:17.692Z,11.3
2022-08-22T22:21:18.281Z,14.8
2022-08-22T22:23:18.910Z,11.7
2022-08-22T22:25:39.624Z,13.5
2022-08-22T22:27:19.280Z,14.6
2022-08-22T22:29:19.706Z,13.6
2022-08-22T22:31:20.027Z,13.4
2022-08-22T22:33:25.058Z,13.6
2022-08-22T22:35:21.017Z,13
2022-08-22T22:37:21.311Z,15.8
2022-08-22T22:39:21.684Z,14.4
2022-08-22T22:41:22.142Z,13.4
2022-08-22T22:43:22.537Z,11.6
2022-08-22T22:45:22.845Z,14.9
2022-08-22T22:47:26.527Z,14.4
2022-08-22T22:49:24.069Z,13.6
2022-08-22T22:51:24.277Z,12.3
2022-08-22T22:53:28.579Z,12.8
2022-08-22T22:55:25.311Z,18.4
2022-08-22T22:57:25.851Z,12.6
2022-08-22T22:59:25.665Z,13.4
2022-08-22T23:01:26.193Z,18.9
2022-08-22T23:03:26.312Z,14.2
2022-08-22T23:05:26.983Z,15.5
2022-08-22T23:07:27.201Z,12.5
2022-08-22T23:09:32.414Z,20.7
2022-08-22T23:11:29.588Z,13.2
2022-08-22T23:13:28.192Z,12
2022-08-22T23:15:28.601Z,15.4
2022-08-22T23:17:29.142Z,11.6
2022-08-22T23:19:30.034Z,14.6
2022-08-22T23:21:29.928Z,13.1
2022-08-22T23:23:30.107Z,9.9
2022-08-22T23:25:30.800Z,11.3
2022-08-22T23:27:30.905Z,14.5
2022-08-22T23:29:31.450Z,10.9
2022-08-22T23:31:34.591Z,12.5
2022-08-22T23:33:33.039Z,8.7
2022-08-22T23:35:32.403Z,11.5
2022-08-22T23:37:33.066Z,17.2
2022-08-22T23:39:34.729Z,11.1
2022-08-22T23:41:33.935Z,15.7
2022-08-22T23:43:34.037Z,17.3
2022-08-22T23:45:34.244Z,15.4
2022-08-22T23:47:34.576Z,12.8
2022-08-22T23:49:37.080Z,15.1
2022-08-22T23:51:35.522Z,16.7
2022-08-22T23:53:36.493Z,11.7
2022-08-22T23:55:36.121Z,15.9
2022-08-22T23:57:36.513Z,9.9
2022-08-22T23:59:38.042Z,15
